Lake Lotawana, Missouri
Current Conditions -  °F | °C
As of 5:09 AM on Saturday 25 Oct 2014 (Local Time) from KLXT Reporting Station
Moderate Fog Moderate Fog  
Wind Chill: 58°   Ceiling: 500
Heat Index: 58°   Visibility: 0.25mi
Dew Point: 57°   Wind: 5mph
Humidity: 97%   Direction: 230°SW
Pressure: 30.02"   Gusts: NA
Location:  38.908°N, 94.2968°W
Report Text: KLXT 251009Z AUTO 23004KT 1/4SM FG VV005 14/14 A3002 RMK AO2 T01440139
Loading
Personal Weather Stations






























Interactive Weather Map
Tropical Storm Tracking
New forecast layout! Learn more

10-Day Weather Forecast

Advertisements
Track Severe Weather on mobile